createdAt,value
2023-03-26T00:00:17.367Z,68.70
2023-03-26T00:01:23.587Z,68.89
2023-03-26T00:02:25.072Z,68.88
2023-03-26T00:03:27.818Z,69.24
2023-03-26T00:04:29.807Z,69.36
2023-03-26T00:05:32.177Z,69.08
2023-03-26T00:06:38.867Z,69.83
2023-03-26T00:07:41.063Z,68.59
2023-03-26T00:08:45.137Z,68.95
2023-03-26T00:09:46.634Z,68.05
2023-03-26T00:10:48.044Z,68.33
2023-03-26T00:11:49.715Z,68.16
2023-03-26T00:12:51.616Z,68.42
2023-03-26T00:13:56.864Z,68.90
2023-03-26T00:14:59.964Z,68.18
2023-03-26T00:16:02.106Z,68.50
2023-03-26T00:17:04.339Z,67.89
2023-03-26T00:18:06.144Z,67.88
2023-03-26T00:19:07.908Z,67.52
2023-03-26T00:20:09.672Z,67.40
2023-03-26T00:21:14.672Z,67.26
2023-03-26T00:22:17.056Z,67.12
2023-03-26T00:23:18.506Z,66.52
2023-03-26T00:24:20.056Z,66.78
2023-03-26T00:25:23.653Z,66.77
2023-03-26T00:26:26.677Z,66.64
2023-03-26T00:27:29.220Z,67.29
2023-03-26T00:28:30.749Z,66.76
2023-03-26T00:29:33.307Z,66.89
2023-03-26T00:30:41.766Z,67.12
2023-03-26T00:31:46.051Z,67.21
2023-03-26T00:32:53.556Z,67.41
2023-03-26T00:33:56.807Z,67.02
2023-03-26T00:34:58.307Z,66.88
2023-03-26T00:36:03.896Z,66.77
2023-03-26T00:37:05.867Z,66.35
2023-03-26T00:38:07.828Z,66.42
2023-03-26T00:39:10.132Z,66.31
2023-03-26T00:40:12.218Z,66.25
2023-03-26T00:41:23.161Z,66.15
2023-03-26T00:42:28.493Z,66.33
2023-03-26T00:43:33.367Z,66.32
2023-03-26T00:44:34.866Z,66.42
2023-03-26T00:45:36.264Z,66.26
2023-03-26T00:46:37.826Z,66.75
2023-03-26T00:47:40.943Z,66.39
2023-03-26T00:48:46.029Z,66.39
2023-03-26T00:49:48.815Z,66.39
2023-03-26T00:50:50.814Z,66.68
2023-03-26T00:51:53.114Z,66.28
2023-03-26T00:52:55.893Z,65.96
2023-03-26T00:53:58.171Z,66.25
2023-03-26T00:54:59.615Z,66.52
2023-03-26T00:56:01.059Z,66.59
2023-03-26T00:57:03.042Z,66.34
2023-03-26T00:58:04.560Z,66.49
2023-03-26T00:59:06.461Z,66.33
2023-03-26T01:00:11.272Z,66.18
2023-03-26T01:01:16.129Z,66.27
2023-03-26T01:02:20.940Z,66.45
2023-03-26T01:03:26.986Z,65.98
2023-03-26T01:04:34.703Z,66.45
2023-03-26T01:05:52.981Z,66.08
2023-03-26T01:06:55.746Z,66.58
2023-03-26T01:07:57.553Z,66.14
2023-03-26T01:09:04.214Z,66.83
2023-03-26T01:10:06.026Z,66.23
2023-03-26T01:11:17.906Z,66.59
2023-03-26T01:12:23.003Z,66.40
2023-03-26T01:13:25.363Z,66.24
2023-03-26T01:14:29.498Z,66.28
2023-03-26T01:15:31.724Z,66.06
2023-03-26T01:16:46.474Z,65.95
2023-03-26T01:17:51.971Z,66.04
2023-03-26T01:18:54.654Z,66.12
2023-03-26T01:20:38.682Z,66.34
2023-03-26T01:21:41.027Z,65.88
2023-03-26T01:22:47.464Z,66.22
2023-03-26T01:24:00.142Z,66.00
2023-03-26T01:25:01.636Z,65.89
2023-03-26T01:26:32.861Z,66.52
2023-03-26T01:27:54.396Z,66.16
2023-03-26T01:28:59.813Z,66.61
2023-03-26T01:30:24.349Z,66.42
2023-03-26T01:31:37.575Z,67.11
2023-03-26T01:33:18.062Z,67.67
2023-03-26T01:34:42.694Z,67.09
2023-03-26T01:36:13.682Z,67.09
2023-03-26T01:37:32.603Z,67.35
2023-03-26T01:39:05.150Z,67.11
2023-03-26T01:40:15.605Z,67.16
2023-03-26T01:41:30.791Z,66.95
2023-03-26T01:42:46.100Z,67.26
2023-03-26T01:43:56.532Z,67.03
2023-03-26T01:45:06.292Z,67.29
2023-03-26T01:46:11.313Z,67.53
2023-03-26T01:47:13.848Z,67.62
2023-03-26T01:48:16.253Z,67.09
2023-03-26T01:49:18.179Z,67.15
2023-03-26T01:50:19.617Z,66.56
2023-03-26T01:51:33.458Z,67.42
2023-03-26T01:52:35.202Z,67.33
2023-03-26T01:53:44.775Z,67.50
2023-03-26T01:54:46.649Z,67.72
2023-03-26T01:55:56.877Z,67.90
2023-03-26T01:57:13.456Z,67.28
2023-03-26T01:58:32.933Z,67.48
2023-03-26T01:59:52.707Z,68.11
2023-03-26T02:01:12.650Z,67.52
2023-03-26T02:02:22.252Z,67.63
2023-03-26T02:03:43.251Z,67.90
2023-03-26T02:04:53.284Z,67.54
2023-03-26T02:06:01.072Z,67.62
2023-03-26T02:07:09.267Z,67.52
2023-03-26T02:08:23.056Z,67.57
2023-03-26T02:09:29.147Z,67.60
2023-03-26T02:10:35.600Z,67.58
2023-03-26T02:11:38.576Z,68.11
2023-03-26T02:12:40.956Z,67.82
2023-03-26T02:13:45.738Z,67.85
2023-03-26T02:14:47.265Z,67.99
2023-03-26T02:16:03.611Z,68.13
2023-03-26T02:17:05.079Z,68.75
2023-03-26T02:18:10.749Z,68.99
2023-03-26T02:19:15.953Z,68.74
2023-03-26T02:20:19.757Z,69.18
2023-03-26T02:21:26.178Z,68.60
2023-03-26T02:22:29.861Z,68.75
2023-03-26T02:23:35.624Z,68.55
2023-03-26T02:24:38.518Z,68.93
2023-03-26T02:25:41.968Z,68.83
2023-03-26T02:26:43.391Z,69.00
2023-03-26T02:27:47.444Z,68.53
2023-03-26T02:28:49.268Z,68.34
2023-03-26T02:29:50.803Z,68.40
2023-03-26T02:30:52.515Z,68.13
2023-03-26T02:31:54.042Z,68.23
2023-03-26T02:32:59.113Z,68.21
2023-03-26T02:34:00.885Z,69.03
2023-03-26T02:35:04.471Z,68.93
2023-03-26T02:36:08.504Z,68.93
2023-03-26T02:37:10.430Z,68.85
2023-03-26T02:38:14.444Z,69.20
2023-03-26T02:39:15.901Z,69.38
2023-03-26T02:40:18.753Z,69.24
2023-03-26T02:41:20.527Z,69.55
2023-03-26T02:42:21.950Z,69.19
2023-03-26T02:43:23.504Z,69.55
2023-03-26T02:44:25.374Z,70.29
2023-03-26T02:45:26.839Z,70.03
2023-03-26T02:46:28.355Z,69.90
2023-03-26T02:47:29.845Z,69.90
2023-03-26T02:48:31.407Z,69.57
2023-03-26T02:49:34.007Z,68.93
2023-03-26T02:50:36.824Z,69.63
2023-03-26T02:51:38.285Z,69.19
2023-03-26T02:52:40.005Z,69.47
2023-03-26T02:53:41.504Z,69.28
2023-03-26T02:54:42.941Z,69.76
2023-03-26T02:55:44.537Z,70.11
2023-03-26T02:56:46.155Z,70.25
2023-03-26T02:57:47.631Z,70.11
2023-03-26T02:58:49.126Z,70.31
2023-03-26T02:59:50.655Z,70.23
2023-03-26T03:00:55.083Z,69.69
2023-03-26T03:01:56.643Z,69.81
2023-03-26T03:02:58.360Z,69.95
2023-03-26T03:04:01.504Z,70.79
2023-03-26T03:05:05.906Z,70.70
2023-03-26T03:06:09.060Z,70.80
2023-03-26T03:07:14.382Z,71.03
2023-03-26T03:08:18.319Z,70.85
2023-03-26T03:09:20.183Z,70.99
2023-03-26T03:10:21.987Z,71.37
2023-03-26T03:11:24.985Z,71.46
2023-03-26T03:12:26.573Z,70.92
2023-03-26T03:13:28.889Z,70.98
2023-03-26T03:14:31.617Z,72.03
2023-03-26T03:15:33.294Z,71.92
2023-03-26T03:16:34.938Z,71.41
2023-03-26T03:17:36.438Z,71.50
2023-03-26T03:18:38.080Z,71.48
2023-03-26T03:19:39.699Z,71.28
2023-03-26T03:20:41.587Z,70.87
2023-03-26T03:21:43.169Z,70.95
2023-03-26T03:22:44.678Z,70.18
2023-03-26T03:23:46.106Z,70.77
2023-03-26T03:24:47.530Z,71.13
2023-03-26T03:25:50.815Z,71.01
2023-03-26T03:26:55.040Z,71.13
2023-03-26T03:27:56.507Z,71.59
2023-03-26T03:28:58.417Z,71.60
2023-03-26T03:29:59.863Z,71.77
2023-03-26T03:31:01.327Z,71.82
2023-03-26T03:32:02.755Z,71.41
2023-03-26T03:33:06.183Z,71.56
2023-03-26T03:34:07.695Z,72.03
2023-03-26T03:35:09.315Z,71.45
2023-03-26T03:36:21.035Z,71.65
2023-03-26T03:37:24.592Z,71.54
2023-03-26T03:38:26.639Z,71.50
2023-03-26T03:39:28.074Z,71.63
2023-03-26T03:40:29.548Z,71.37
2023-03-26T03:41:31.168Z,70.84
2023-03-26T03:42:32.650Z,71.07
2023-03-26T03:43:34.774Z,71.27
2023-03-26T03:44:36.340Z,70.68
2023-03-26T03:45:37.747Z,70.71
2023-03-26T03:46:39.208Z,70.99
2023-03-26T03:47:40.861Z,70.85
2023-03-26T03:48:48.135Z,70.88
2023-03-26T03:49:50.028Z,71.65
2023-03-26T03:50:51.693Z,70.87
2023-03-26T03:51:53.137Z,71.03
2023-03-26T03:52:55.850Z,70.68
2023-03-26T03:53:57.529Z,70.87
2023-03-26T03:55:00.458Z,71.39
2023-03-26T03:56:01.990Z,71.29
2023-03-26T03:57:03.585Z,70.74
2023-03-26T03:58:06.391Z,71.18
2023-03-26T03:59:08.936Z,71.46
2023-03-26T04:00:11.823Z,71.64
2023-03-26T04:01:13.539Z,71.78
2023-03-26T04:02:25.966Z,71.91
2023-03-26T04:03:34.406Z,71.61
2023-03-26T04:04:37.649Z,71.51
2023-03-26T04:05:39.150Z,71.40
2023-03-26T04:06:40.893Z,71.30
2023-03-26T04:07:42.384Z,70.98
2023-03-26T04:08:43.859Z,71.72
2023-03-26T04:09:45.335Z,71.41
2023-03-26T04:10:46.864Z,71.66
2023-03-26T04:11:50.733Z,71.66
2023-03-26T04:12:52.217Z,71.30
2023-03-26T04:13:53.636Z,72.12
2023-03-26T04:14:55.704Z,71.75
2023-03-26T04:15:57.468Z,71.74
2023-03-26T04:16:59.198Z,71.89
2023-03-26T04:18:00.994Z,71.56
2023-03-26T04:19:03.643Z,71.37
2023-03-26T04:20:06.862Z,71.07
2023-03-26T04:21:08.301Z,71.12
2023-03-26T04:22:11.925Z,70.57
2023-03-26T04:23:14.301Z,70.54
2023-03-26T04:24:15.760Z,71.07
2023-03-26T04:25:17.255Z,70.89
2023-03-26T04:26:19.950Z,71.49
2023-03-26T04:27:28.761Z,71.67
2023-03-26T04:28:35.554Z,71.61
2023-03-26T04:29:42.927Z,72.00
2023-03-26T04:30:45.000Z,72.43
2023-03-26T04:31:47.101Z,72.65
2023-03-26T04:32:49.353Z,72.10
2023-03-26T04:33:56.366Z,71.68
2023-03-26T04:35:03.457Z,72.09
2023-03-26T04:36:06.486Z,73.01
2023-03-26T04:37:16.561Z,72.91
2023-03-26T04:38:18.840Z,72.61
2023-03-26T04:39:29.393Z,73.42
2023-03-26T04:40:30.872Z,73.38
2023-03-26T04:41:32.572Z,72.86
2023-03-26T04:42:34.079Z,73.21
2023-03-26T04:43:35.673Z,72.83
2023-03-26T04:44:37.150Z,72.56
2023-03-26T04:45:39.511Z,72.40
2023-03-26T04:46:43.570Z,73.35
2023-03-26T04:47:46.846Z,73.06
2023-03-26T04:48:52.084Z,72.68
2023-03-26T04:49:53.515Z,73.04
2023-03-26T04:50:55.039Z,72.81
2023-03-26T04:51:56.465Z,72.63
2023-03-26T04:52:58.662Z,72.61
2023-03-26T04:54:02.486Z,72.87
2023-03-26T04:55:07.643Z,73.50
2023-03-26T04:56:14.320Z,73.39
2023-03-26T04:57:34.405Z,73.36
2023-03-26T04:58:35.873Z,73.95
2023-03-26T04:59:37.538Z,74.20
2023-03-26T05:00:38.987Z,74.23
2023-03-26T05:01:41.891Z,73.94
2023-03-26T05:02:43.816Z,73.95
2023-03-26T05:03:45.977Z,74.06
2023-03-26T05:04:48.439Z,74.30
2023-03-26T05:05:49.973Z,74.50
2023-03-26T05:06:51.706Z,75.17
2023-03-26T05:07:53.558Z,74.78
2023-03-26T05:08:55.461Z,73.95
2023-03-26T05:09:57.570Z,74.69
2023-03-26T05:10:59.115Z,74.17
2023-03-26T05:12:00.675Z,74.00
2023-03-26T05:13:02.382Z,74.11
2023-03-26T05:14:04.048Z,74.16
2023-03-26T05:15:06.179Z,74.64
2023-03-26T05:16:08.113Z,74.12
2023-03-26T05:17:14.847Z,74.40
2023-03-26T05:18:16.488Z,74.26
2023-03-26T05:19:17.921Z,73.72
2023-03-26T05:20:27.562Z,73.82
2023-03-26T05:21:28.996Z,74.07
2023-03-26T05:22:30.490Z,74.48
2023-03-26T05:23:32.042Z,74.51
2023-03-26T05:24:33.509Z,74.15
2023-03-26T05:25:35.026Z,73.96
2023-03-26T05:26:36.941Z,74.50
2023-03-26T05:27:39.352Z,73.71
2023-03-26T05:28:40.951Z,73.83
2023-03-26T05:29:43.228Z,73.59
2023-03-26T05:30:44.847Z,73.73
2023-03-26T05:31:48.599Z,73.68
2023-03-26T05:32:50.342Z,73.82
2023-03-26T05:34:54.594Z,73.43
2023-03-26T05:36:09.236Z,73.78
2023-03-26T05:37:10.812Z,73.13
2023-03-26T05:38:12.588Z,73.34
2023-03-26T05:39:14.358Z,74.07
2023-03-26T05:40:17.338Z,74.16
2023-03-26T05:41:18.971Z,74.51
2023-03-26T05:42:20.866Z,74.86
2023-03-26T05:43:22.362Z,74.15
2023-03-26T05:44:23.938Z,74.14
2023-03-26T05:45:25.532Z,74.22
2023-03-26T05:46:29.183Z,74.42
2023-03-26T05:47:31.062Z,75.06
2023-03-26T05:48:32.632Z,74.56
2023-03-26T05:49:34.270Z,75.05
2023-03-26T05:50:35.917Z,74.96
2023-03-26T05:51:37.476Z,74.69
2023-03-26T05:52:39.104Z,74.74
2023-03-26T05:53:40.613Z,74.39
2023-03-26T05:54:42.774Z,74.86
2023-03-26T05:55:57.901Z,74.82
2023-03-26T05:57:00.492Z,74.22
2023-03-26T05:58:02.792Z,74.17
2023-03-26T05:59:04.352Z,74.25
2023-03-26T06:00:11.923Z,74.05
2023-03-26T06:01:18.472Z,73.79
2023-03-26T06:02:20.017Z,73.44
2023-03-26T06:03:23.187Z,73.52
2023-03-26T06:04:25.042Z,73.55
2023-03-26T06:05:26.900Z,73.46
2023-03-26T06:06:28.579Z,73.10
2023-03-26T06:07:31.655Z,73.16
2023-03-26T06:08:33.698Z,73.38
2023-03-26T06:09:37.700Z,73.36
2023-03-26T06:10:45.366Z,73.13
2023-03-26T06:11:46.907Z,72.70
2023-03-26T06:12:49.984Z,72.57
2023-03-26T06:13:51.544Z,72.41
2023-03-26T06:14:53.005Z,72.62
2023-03-26T06:15:54.642Z,72.49
2023-03-26T06:16:56.085Z,72.85
2023-03-26T06:17:57.673Z,72.11
2023-03-26T06:18:59.342Z,71.76
2023-03-26T06:20:01.183Z,72.38
2023-03-26T06:21:04.394Z,72.54
2023-03-26T06:22:06.025Z,72.68
2023-03-26T06:23:07.571Z,72.68
2023-03-26T06:24:09.108Z,72.06
2023-03-26T06:25:10.785Z,71.80
2023-03-26T06:26:12.301Z,72.08
2023-03-26T06:27:13.870Z,71.56
2023-03-26T06:28:16.015Z,71.74
2023-03-26T06:29:17.751Z,71.14
2023-03-26T06:30:19.539Z,71.54
2023-03-26T06:31:21.180Z,71.22
2023-03-26T06:32:23.272Z,71.14
2023-03-26T06:33:24.986Z,71.43
2023-03-26T06:34:27.129Z,71.50
2023-03-26T06:35:30.247Z,71.06
2023-03-26T06:36:31.928Z,70.96
2023-03-26T06:37:33.516Z,70.61
2023-03-26T06:38:35.145Z,70.68
2023-03-26T06:39:39.374Z,70.63
2023-03-26T06:40:40.992Z,71.30
2023-03-26T06:41:45.311Z,71.38
2023-03-26T06:43:07.684Z,71.95
2023-03-26T06:44:11.447Z,71.59
2023-03-26T06:45:13.921Z,71.55
2023-03-26T06:46:16.078Z,70.90
2023-03-26T06:47:18.101Z,71.77
2023-03-26T06:48:19.828Z,71.04
2023-03-26T06:49:21.615Z,71.22
2023-03-26T06:50:23.543Z,71.01
2023-03-26T06:51:25.332Z,70.84
2023-03-26T06:52:27.122Z,70.26
2023-03-26T06:53:28.874Z,70.37
2023-03-26T06:54:47.467Z,70.02
2023-03-26T06:55:58.846Z,69.96
2023-03-26T06:57:00.516Z,70.77
2023-03-26T06:58:02.116Z,71.48
2023-03-26T06:59:03.728Z,71.64
2023-03-26T07:00:06.912Z,71.26
2023-03-26T07:01:08.576Z,71.03
2023-03-26T07:02:11.485Z,71.31
2023-03-26T07:03:13.030Z,70.75
2023-03-26T07:04:14.673Z,70.72
2023-03-26T07:05:16.302Z,70.54
2023-03-26T07:06:17.904Z,71.25
2023-03-26T07:07:21.851Z,71.64
2023-03-26T07:08:26.590Z,71.58
2023-03-26T07:09:30.416Z,71.74
2023-03-26T07:10:32.408Z,71.48
2023-03-26T07:11:35.400Z,71.47
2023-03-26T07:12:42.601Z,71.56
2023-03-26T07:13:47.712Z,70.92
2023-03-26T07:14:49.516Z,70.84
2023-03-26T07:15:51.131Z,70.70
2023-03-26T07:16:52.785Z,70.62
2023-03-26T07:17:54.611Z,70.35
2023-03-26T07:18:56.535Z,69.92
2023-03-26T07:19:58.384Z,69.74
2023-03-26T07:21:00.296Z,69.99
2023-03-26T07:22:06.473Z,69.50
2023-03-26T07:23:09.855Z,69.38
2023-03-26T07:24:12.028Z,69.05
2023-03-26T07:25:15.312Z,69.11
2023-03-26T07:26:57.116Z,68.80
2023-03-26T07:28:14.548Z,69.08
2023-03-26T07:29:16.153Z,69.11
2023-03-26T07:30:39.335Z,69.09
2023-03-26T07:32:21.847Z,69.79
2023-03-26T07:34:02.485Z,69.14
2023-03-26T07:35:27.373Z,69.08
2023-03-26T07:36:36.103Z,69.13
2023-03-26T07:37:43.568Z,70.34
2023-03-26T07:39:00.207Z,70.72
2023-03-26T07:40:09.563Z,70.61
2023-03-26T07:41:24.014Z,70.06
2023-03-26T07:42:46.189Z,69.80
2023-03-26T07:44:19.946Z,70.20
2023-03-26T07:45:33.904Z,70.58
2023-03-26T07:46:37.087Z,70.42
2023-03-26T07:47:41.713Z,70.11
2023-03-26T07:48:49.451Z,70.05
2023-03-26T07:49:53.345Z,69.89
2023-03-26T07:50:55.984Z,69.61
2023-03-26T07:51:58.970Z,69.23
2023-03-26T07:53:01.165Z,69.38
2023-03-26T07:54:04.317Z,69.14
2023-03-26T07:55:06.620Z,70.39
2023-03-26T07:56:21.694Z,69.83
2023-03-26T07:57:46.981Z,70.53
2023-03-26T07:58:52.099Z,70.19
2023-03-26T08:00:01.431Z,70.21
2023-03-26T08:01:15.260Z,70.31
2023-03-26T08:02:37.731Z,70.24
2023-03-26T08:04:24.708Z,69.05
2023-03-26T08:05:31.566Z,69.43
2023-03-26T08:06:38.976Z,69.32
2023-03-26T08:08:05.194Z,69.74
2023-03-26T08:09:24.084Z,70.25
2023-03-26T08:10:28.445Z,70.20
2023-03-26T08:11:34.985Z,69.85
2023-03-26T08:13:00.969Z,70.55
2023-03-26T08:14:06.906Z,70.32
2023-03-26T08:16:11.646Z,70.53
2023-03-26T08:17:20.183Z,70.59
2023-03-26T08:18:36.932Z,71.33
2023-03-26T08:20:07.135Z,71.19
2023-03-26T08:21:28.299Z,71.57
2023-03-26T08:23:00.148Z,70.75
2023-03-26T08:24:25.965Z,70.33
2023-03-26T08:27:33.463Z,70.26
2023-03-26T08:29:12.158Z,70.93
2023-03-26T08:30:28.089Z,70.27
2023-03-26T08:31:39.586Z,71.23
2023-03-26T08:32:41.597Z,70.74
2023-03-26T08:33:43.767Z,71.75
2023-03-26T08:34:46.281Z,71.43
2023-03-26T08:35:49.142Z,72.10
2023-03-26T08:36:53.847Z,71.52
2023-03-26T08:37:57.063Z,71.97
2023-03-26T08:39:00.135Z,71.47
2023-03-26T08:40:01.927Z,72.22
2023-03-26T08:41:15.685Z,71.91
2023-03-26T08:42:20.480Z,71.97
2023-03-26T08:43:31.598Z,71.92
2023-03-26T08:44:40.794Z,71.45
2023-03-26T08:45:58.618Z,71.71
2023-03-26T08:47:25.269Z,73.31
2023-03-26T08:48:51.339Z,73.51
2023-03-26T08:50:30.896Z,74.14
2023-03-26T08:51:38.396Z,74.21
2023-03-26T08:52:48.836Z,74.52
2023-03-26T08:54:28.798Z,74.78
2023-03-26T08:55:41.346Z,74.69
2023-03-26T08:57:20.913Z,74.84
2023-03-26T08:59:19.704Z,75.37
2023-03-26T09:00:37.810Z,74.85
2023-03-26T09:02:16.930Z,74.61
2023-03-26T09:03:39.441Z,74.90
2023-03-26T09:04:59.467Z,74.90
2023-03-26T09:06:43.556Z,75.69
2023-03-26T09:08:22.215Z,75.66
2023-03-26T09:09:56.394Z,76.00
2023-03-26T09:11:39.108Z,75.96
2023-03-26T09:13:06.665Z,76.51
2023-03-26T09:14:34.388Z,76.84
2023-03-26T09:15:41.372Z,76.11
2023-03-26T09:17:09.028Z,76.37
2023-03-26T09:18:31.849Z,76.23
2023-03-26T09:20:02.548Z,76.29
2023-03-26T09:21:21.487Z,76.07
2023-03-26T09:22:38.057Z,76.43
2023-03-26T09:23:49.736Z,76.80
2023-03-26T09:24:57.165Z,76.69
2023-03-26T09:26:12.824Z,76.27
2023-03-26T09:27:36.598Z,76.70
2023-03-26T09:29:17.826Z,77.11
2023-03-26T09:30:43.387Z,76.53
2023-03-26T09:32:21.287Z,77.26
2023-03-26T09:33:41.372Z,77.04
2023-03-26T09:35:12.513Z,76.98
2023-03-26T09:36:24.497Z,76.49
2023-03-26T09:37:57.095Z,76.73
2023-03-26T09:39:10.399Z,77.02
2023-03-26T09:40:24.524Z,76.66
2023-03-26T09:41:43.344Z,76.97
2023-03-26T09:42:53.774Z,77.28
2023-03-26T09:43:55.179Z,76.87
2023-03-26T09:45:15.893Z,77.80
2023-03-26T09:46:41.370Z,77.58
2023-03-26T09:47:47.550Z,77.60
2023-03-26T09:49:01.570Z,77.52
2023-03-26T09:50:37.608Z,77.52
2023-03-26T09:51:51.533Z,77.46
2023-03-26T09:53:12.543Z,78.47
2023-03-26T09:54:18.165Z,80.15
2023-03-26T09:55:31.719Z,81.05
2023-03-26T09:56:51.841Z,80.33
2023-03-26T09:58:18.992Z,79.53
2023-03-26T09:59:40.680Z,79.69
2023-03-26T10:01:01.136Z,79.59
2023-03-26T10:02:11.932Z,79.27
2023-03-26T10:03:18.289Z,79.08
2023-03-26T10:04:23.794Z,78.60
2023-03-26T10:05:44.048Z,78.93
2023-03-26T10:07:22.309Z,80.74
2023-03-26T10:08:44.406Z,80.50
2023-03-26T10:10:04.388Z,80.06
2023-03-26T10:11:17.803Z,80.17
2023-03-26T10:12:32.225Z,80.03
2023-03-26T10:14:03.887Z,79.52
2023-03-26T10:15:16.029Z,79.64
2023-03-26T10:16:37.529Z,80.50
2023-03-26T10:18:27.070Z,79.41
2023-03-26T10:19:48.026Z,78.37
2023-03-26T10:21:17.502Z,79.27
2023-03-26T10:22:33.167Z,79.00
2023-03-26T10:24:05.972Z,79.58
2023-03-26T10:25:22.246Z,80.45
2023-03-26T10:27:09.966Z,80.21
2023-03-26T10:28:37.060Z,79.84
2023-03-26T10:29:53.557Z,79.91
2023-03-26T10:31:06.273Z,80.62
2023-03-26T10:32:47.310Z,80.14
2023-03-26T10:34:11.085Z,78.44
2023-03-26T10:35:41.798Z,79.18
2023-03-26T10:37:08.890Z,78.89
2023-03-26T10:38:28.433Z,79.78
2023-03-26T10:39:46.680Z,79.99
2023-03-26T10:41:00.484Z,79.81
2023-03-26T10:42:15.565Z,79.80
2023-03-26T10:43:54.673Z,79.84
2023-03-26T10:45:24.806Z,80.29
2023-03-26T10:46:52.245Z,80.27
2023-03-26T10:48:31.298Z,80.45
2023-03-26T10:50:08.156Z,80.53
2023-03-26T10:51:41.436Z,80.19
2023-03-26T10:52:49.918Z,80.04
2023-03-26T10:53:58.613Z,80.64
2023-03-26T10:55:30.881Z,80.09
2023-03-26T10:56:41.282Z,80.00
2023-03-26T10:57:46.048Z,80.26
2023-03-26T10:58:49.345Z,81.00
2023-03-26T10:59:55.968Z,81.37
2023-03-26T11:01:06.381Z,81.91
2023-03-26T11:02:31.161Z,79.86
2023-03-26T11:03:54.591Z,78.88
2023-03-26T11:05:19.509Z,79.89
2023-03-26T11:06:34.993Z,80.40
2023-03-26T11:07:48.030Z,80.52
2023-03-26T11:08:56.778Z,80.85
2023-03-26T11:10:16.996Z,80.92
2023-03-26T11:11:42.009Z,80.05
2023-03-26T11:13:05.020Z,80.45
2023-03-26T11:14:34.432Z,79.81
2023-03-26T11:15:45.717Z,79.20
2023-03-26T11:17:40.780Z,78.97
2023-03-26T11:18:56.014Z,78.79
2023-03-26T11:20:28.354Z,78.83
2023-03-26T11:22:00.150Z,80.16
2023-03-26T11:23:32.397Z,80.19
2023-03-26T11:25:15.808Z,80.55
2023-03-26T11:26:41.010Z,79.75
2023-03-26T11:28:06.516Z,79.63
2023-03-26T11:29:32.716Z,80.00
2023-03-26T11:30:59.180Z,78.77
2023-03-26T11:32:17.674Z,79.33
2023-03-26T11:33:32.550Z,79.87
2023-03-26T11:34:40.324Z,81.03
2023-03-26T11:35:51.049Z,81.21
2023-03-26T11:36:56.442Z,81.37
2023-03-26T11:38:02.745Z,81.38
2023-03-26T11:39:10.705Z,79.29
2023-03-26T11:40:21.507Z,79.02
2023-03-26T11:41:26.235Z,77.85
2023-03-26T11:42:29.735Z,77.93
2023-03-26T11:43:36.271Z,78.72
2023-03-26T11:44:41.392Z,79.02
2023-03-26T11:45:47.044Z,79.36
2023-03-26T11:46:52.851Z,78.77
2023-03-26T11:48:19.178Z,78.91
2023-03-26T11:49:22.851Z,79.31
2023-03-26T11:50:28.540Z,79.18
2023-03-26T11:51:41.061Z,78.91
2023-03-26T11:52:44.085Z,79.49
2023-03-26T11:53:46.933Z,79.83
2023-03-26T11:54:48.477Z,79.43
2023-03-26T11:56:26.016Z,79.32
2023-03-26T11:57:33.279Z,79.11
2023-03-26T11:58:43.004Z,79.93
2023-03-26T11:59:57.281Z,80.17
2023-03-26T12:01:04.651Z,80.03
2023-03-26T12:02:06.102Z,78.79
2023-03-26T12:03:15.761Z,78.77
2023-03-26T12:04:28.194Z,78.41
2023-03-26T12:05:34.324Z,78.97
2023-03-26T12:06:36.046Z,78.46
2023-03-26T12:07:46.608Z,78.33
2023-03-26T12:08:48.705Z,78.95
2023-03-26T12:09:53.854Z,78.54
2023-03-26T12:11:10.296Z,78.38
2023-03-26T12:12:12.136Z,78.87
2023-03-26T12:13:33.655Z,78.99
2023-03-26T12:14:35.826Z,79.17
2023-03-26T12:15:43.148Z,79.56
2023-03-26T12:17:06.152Z,79.05
2023-03-26T12:18:41.309Z,79.47
2023-03-26T12:19:44.992Z,78.71
2023-03-26T12:20:46.468Z,79.12
2023-03-26T12:21:50.176Z,79.11
2023-03-26T12:23:03.436Z,79.71
2023-03-26T12:24:05.678Z,79.52
2023-03-26T12:25:24.689Z,79.49
2023-03-26T12:26:41.215Z,78.97
2023-03-26T12:27:57.198Z,79.23
2023-03-26T12:29:16.182Z,78.19
2023-03-26T12:30:25.709Z,78.63
2023-03-26T12:31:30.330Z,78.58
2023-03-26T12:32:45.199Z,78.50
2023-03-26T12:34:08.032Z,75.85
2023-03-26T12:35:19.883Z,76.24
2023-03-26T12:36:29.177Z,76.24
2023-03-26T12:37:36.993Z,76.73
2023-03-26T12:38:40.810Z,76.14
2023-03-26T12:40:09.489Z,68.79
2023-03-26T12:43:51.320Z,56.39
2023-03-26T12:44:51.663Z,54.61
2023-03-26T12:44:56.639Z,52.09
2023-03-26T12:45:28.144Z,49.61
2023-03-26T12:47:54.962Z,47.34
2023-03-26T12:48:03.375Z,40.87
2023-03-26T12:49:08.720Z,35.22
2023-03-26T12:50:14.682Z,33.94
2023-03-26T12:51:35.427Z,31.58
2023-03-26T12:53:00.319Z,29.76
2023-03-26T12:54:44.263Z,30.31
2023-03-26T12:56:36.752Z,36.01
2023-03-26T12:57:56.518Z,42.58
2023-03-26T12:59:14.135Z,49.13
2023-03-26T13:00:33.151Z,46.76
2023-03-26T13:01:55.930Z,51.53
2023-03-26T13:03:37.988Z,51.26
2023-03-26T13:04:54.991Z,55.11
2023-03-26T13:06:04.345Z,56.41
2023-03-26T13:07:35.280Z,57.05
2023-03-26T13:09:00.542Z,56.51
2023-03-26T13:10:30.509Z,56.29
2023-03-26T13:11:55.974Z,54.68
2023-03-26T13:13:39.265Z,55.46
2023-03-26T13:14:53.047Z,54.46
2023-03-26T13:16:02.172Z,55.19
2023-03-26T13:17:09.915Z,54.37
2023-03-26T13:18:33.302Z,53.74
2023-03-26T13:19:46.403Z,53.67
2023-03-26T13:21:03.209Z,53.99
2023-03-26T13:22:12.480Z,54.34
2023-03-26T13:23:51.849Z,54.79
2023-03-26T13:25:04.078Z,55.60
2023-03-26T13:26:42.847Z,55.44
2023-03-26T13:28:03.090Z,53.51
2023-03-26T13:29:29.702Z,53.57
2023-03-26T13:30:44.148Z,53.65
2023-03-26T13:32:15.927Z,54.07
2023-03-26T13:33:32.352Z,54.05
2023-03-26T13:34:43.872Z,54.32
2023-03-26T13:36:21.647Z,54.02
2023-03-26T13:37:48.852Z,55.18
2023-03-26T13:39:15.250Z,55.49
2023-03-26T13:40:36.879Z,55.78
2023-03-26T13:42:07.689Z,56.06
2023-03-26T13:43:24.852Z,55.17
2023-03-26T13:45:05.819Z,55.49
2023-03-26T13:46:13.113Z,56.15
2023-03-26T13:47:20.542Z,56.63
2023-03-26T13:48:30.143Z,56.38
2023-03-26T13:49:41.055Z,55.97
2023-03-26T13:50:50.688Z,56.71
2023-03-26T13:52:02.689Z,56.17
2023-03-26T13:53:29.471Z,57.17
2023-03-26T13:54:44.723Z,57.51
2023-03-26T13:55:49.194Z,57.03
2023-03-26T13:56:55.039Z,57.42
2023-03-26T13:58:05.035Z,57.42
2023-03-26T13:59:14.765Z,57.65
2023-03-26T14:00:22.779Z,58.17
2023-03-26T14:01:35.129Z,58.30
2023-03-26T14:02:36.620Z,58.61
2023-03-26T14:03:55.514Z,60.13
2023-03-26T14:05:05.317Z,62.56
2023-03-26T14:06:16.863Z,64.38
2023-03-26T14:07:25.048Z,65.15
2023-03-26T14:08:43.432Z,66.24
2023-03-26T14:09:57.852Z,66.65
2023-03-26T14:11:10.982Z,65.59
2023-03-26T14:12:33.912Z,65.24
2023-03-26T14:13:55.302Z,64.98
2023-03-26T14:15:14.667Z,65.04
2023-03-26T14:16:39.977Z,62.29
2023-03-26T14:17:48.535Z,59.65
2023-03-26T14:19:05.008Z,59.43
2023-03-26T14:20:20.035Z,58.07
2023-03-26T14:22:00.067Z,56.58
2023-03-26T14:23:49.645Z,55.40
2023-03-26T14:25:11.354Z,54.32
2023-03-26T14:26:29.532Z,53.87
2023-03-26T14:28:16.314Z,54.01
2023-03-26T14:29:30.253Z,53.43
2023-03-26T14:30:56.931Z,53.22
2023-03-26T14:32:24.117Z,53.47
2023-03-26T14:33:50.526Z,53.35
2023-03-26T14:35:11.857Z,52.79
2023-03-26T14:36:22.795Z,51.90
2023-03-26T14:37:33.064Z,50.53
2023-03-26T14:38:56.902Z,50.89
2023-03-26T14:40:15.455Z,50.93
2023-03-26T14:41:33.153Z,50.07
2023-03-26T14:42:53.453Z,50.37
2023-03-26T14:44:27.238Z,49.26
2023-03-26T14:45:53.597Z,49.79
2023-03-26T14:46:55.250Z,49.35
2023-03-26T14:48:23.243Z,47.16
2023-03-26T14:49:40.274Z,47.01
2023-03-26T14:51:01.607Z,47.16
2023-03-26T14:52:24.796Z,46.71
2023-03-26T14:53:33.522Z,46.39
2023-03-26T14:54:41.049Z,45.59
2023-03-26T14:56:10.659Z,46.31
2023-03-26T14:57:35.553Z,46.69
2023-03-26T14:58:55.842Z,47.78
2023-03-26T15:00:28.816Z,48.28
2023-03-26T15:02:08.104Z,46.87
2023-03-26T15:03:09.745Z,47.58
2023-03-26T15:04:33.465Z,47.73
2023-03-26T15:06:15.413Z,47.10
2023-03-26T15:07:46.472Z,46.91
2023-03-26T15:09:36.459Z,46.55
2023-03-26T15:10:56.855Z,47.01
2023-03-26T15:12:31.567Z,47.63
2023-03-26T15:13:59.628Z,46.24
2023-03-26T15:15:01.608Z,45.87
2023-03-26T15:16:09.186Z,45.39